sensor_id;sensor_type;location;lat;lon;timestamp;P1;durP1;ratioP1;P2;durP2;ratioP2
32633;SDS011;19043;51.012;5.648;2022-09-09T00:04:31;6.05;;;1.95;;
32633;SDS011;19043;51.012;5.648;2022-09-09T00:09:24;7.40;;;2.53;;
32633;SDS011;19043;51.012;5.648;2022-09-09T00:11:54;5.00;;;2.45;;
32633;SDS011;19043;51.012;5.648;2022-09-09T00:14:37;11.52;;;2.70;;
32633;SDS011;19043;51.012;5.648;2022-09-09T00:19:58;9.05;;;2.38;;
32633;SDS011;19043;51.012;5.648;2022-09-09T00:22:27;6.20;;;2.53;;
32633;SDS011;19043;51.012;5.648;2022-09-09T00:24:56;8.55;;;2.83;;
32633;SDS011;19043;51.012;5.648;2022-09-09T00:27:45;5.75;;;2.90;;
32633;SDS011;19043;51.012;5.648;2022-09-09T00:30:14;6.03;;;3.15;;
32633;SDS011;19043;51.012;5.648;2022-09-09T00:32:48;5.45;;;2.50;;
32633;SDS011;19043;51.012;5.648;2022-09-09T00:35:26;4.90;;;2.17;;
32633;SDS011;19043;51.012;5.648;2022-09-09T00:37:56;12.10;;;3.10;;
32633;SDS011;19043;51.012;5.648;2022-09-09T00:40:33;4.75;;;2.38;;
32633;SDS011;19043;51.012;5.648;2022-09-09T00:43:07;5.35;;;2.63;;
32633;SDS011;19043;51.012;5.648;2022-09-09T00:45:58;7.90;;;2.83;;
32633;SDS011;19043;51.012;5.648;2022-09-09T00:48:51;10.43;;;2.95;;
32633;SDS011;19043;51.012;5.648;2022-09-09T00:51:54;10.23;;;3.05;;
32633;SDS011;19043;51.012;5.648;2022-09-09T00:59:52;4.82;;;2.55;;
32633;SDS011;19043;51.012;5.648;2022-09-09T01:02:50;4.45;;;2.60;;
32633;SDS011;19043;51.012;5.648;2022-09-09T01:11:04;7.57;;;3.35;;
32633;SDS011;19043;51.012;5.648;2022-09-09T01:13:32;5.50;;;2.65;;
32633;SDS011;19043;51.012;5.648;2022-09-09T01:16:00;7.13;;;2.83;;
32633;SDS011;19043;51.012;5.648;2022-09-09T01:18:47;7.70;;;2.95;;
32633;SDS011;19043;51.012;5.648;2022-09-09T01:26:42;5.57;;;3.22;;
32633;SDS011;19043;51.012;5.648;2022-09-09T01:29:09;5.50;;;2.63;;
32633;SDS011;19043;51.012;5.648;2022-09-09T01:31:41;7.03;;;2.88;;
32633;SDS011;19043;51.012;5.648;2022-09-09T01:34:12;7.90;;;2.95;;
32633;SDS011;19043;51.012;5.648;2022-09-09T01:39:06;6.40;;;3.30;;
32633;SDS011;19043;51.012;5.648;2022-09-09T01:41:31;5.32;;;3.00;;
32633;SDS011;19043;51.012;5.648;2022-09-09T01:43:57;7.25;;;2.75;;
32633;SDS011;19043;51.012;5.648;2022-09-09T01:46:22;5.13;;;3.13;;
32633;SDS011;19043;51.012;5.648;2022-09-09T01:48:49;7.53;;;3.20;;
32633;SDS011;19043;51.012;5.648;2022-09-09T01:51:16;5.20;;;2.72;;
32633;SDS011;19043;51.012;5.648;2022-09-09T01:53:41;7.35;;;2.95;;
32633;SDS011;19043;51.012;5.648;2022-09-09T01:56:15;7.63;;;3.28;;
32633;SDS011;19043;51.012;5.648;2022-09-09T02:05:03;12.32;;;3.42;;
32633;SDS011;19043;51.012;5.648;2022-09-09T02:07:46;7.07;;;3.03;;
32633;SDS011;19043;51.012;5.648;2022-09-09T02:13:27;5.57;;;3.05;;
32633;SDS011;19043;51.012;5.648;2022-09-09T02:21:20;14.75;;;3.67;;
32633;SDS011;19043;51.012;5.648;2022-09-09T02:23:47;6.82;;;3.40;;
32633;SDS011;19043;51.012;5.648;2022-09-09T02:26:16;7.95;;;3.95;;
32633;SDS011;19043;51.012;5.648;2022-09-09T02:28:46;10.95;;;3.08;;
32633;SDS011;19043;51.012;5.648;2022-09-09T02:31:14;6.97;;;3.15;;
32633;SDS011;19043;51.012;5.648;2022-09-09T02:33:43;5.85;;;2.97;;
32633;SDS011;19043;51.012;5.648;2022-09-09T02:36:13;7.95;;;3.25;;
32633;SDS011;19043;51.012;5.648;2022-09-09T02:38:42;10.95;;;3.25;;
32633;SDS011;19043;51.012;5.648;2022-09-09T02:41:11;6.55;;;2.95;;
32633;SDS011;19043;51.012;5.648;2022-09-09T02:43:39;7.38;;;3.55;;
32633;SDS011;19043;51.012;5.648;2022-09-09T02:51:15;9.23;;;3.40;;
32633;SDS011;19043;51.012;5.648;2022-09-09T02:54:08;8.50;;;3.70;;
32633;SDS011;19043;51.012;5.648;2022-09-09T02:56:39;8.13;;;3.40;;
32633;SDS011;19043;51.012;5.648;2022-09-09T02:59:07;6.18;;;2.63;;
32633;SDS011;19043;51.012;5.648;2022-09-09T03:01:32;9.70;;;3.47;;
32633;SDS011;19043;51.012;5.648;2022-09-09T03:03:58;9.98;;;3.03;;
32633;SDS011;19043;51.012;5.648;2022-09-09T03:06:23;11.18;;;3.45;;
32633;SDS011;19043;51.012;5.648;2022-09-09T03:08:49;8.98;;;3.08;;
32633;SDS011;19043;51.012;5.648;2022-09-09T03:11:15;11.98;;;3.55;;
32633;SDS011;19043;51.012;5.648;2022-09-09T03:13:41;7.43;;;3.63;;
32633;SDS011;19043;51.012;5.648;2022-09-09T03:16:06;7.50;;;3.38;;
32633;SDS011;19043;51.012;5.648;2022-09-09T03:18:31;8.15;;;3.63;;
32633;SDS011;19043;51.012;5.648;2022-09-09T03:20:57;10.90;;;4.30;;
32633;SDS011;19043;51.012;5.648;2022-09-09T03:23:24;11.50;;;3.35;;
32633;SDS011;19043;51.012;5.648;2022-09-09T03:25:50;14.02;;;3.78;;
32633;SDS011;19043;51.012;5.648;2022-09-09T03:28:16;6.55;;;3.60;;
32633;SDS011;19043;51.012;5.648;2022-09-09T03:30:42;11.57;;;4.15;;
32633;SDS011;19043;51.012;5.648;2022-09-09T03:33:07;7.40;;;3.28;;
32633;SDS011;19043;51.012;5.648;2022-09-09T03:35:32;10.88;;;3.40;;
32633;SDS011;19043;51.012;5.648;2022-09-09T03:37:58;6.72;;;3.33;;
32633;SDS011;19043;51.012;5.648;2022-09-09T03:40:23;8.10;;;3.35;;
32633;SDS011;19043;51.012;5.648;2022-09-09T03:42:49;13.88;;;4.25;;
32633;SDS011;19043;51.012;5.648;2022-09-09T03:45:14;9.52;;;4.28;;
32633;SDS011;19043;51.012;5.648;2022-09-09T03:47:40;9.50;;;3.20;;
32633;SDS011;19043;51.012;5.648;2022-09-09T03:50:06;8.85;;;3.88;;
32633;SDS011;19043;51.012;5.648;2022-09-09T03:52:37;8.20;;;3.55;;
32633;SDS011;19043;51.012;5.648;2022-09-09T03:55:03;9.50;;;3.78;;
32633;SDS011;19043;51.012;5.648;2022-09-09T03:57:29;16.80;;;4.85;;
32633;SDS011;19043;51.012;5.648;2022-09-09T03:59:55;18.83;;;4.20;;
32633;SDS011;19043;51.012;5.648;2022-09-09T04:02:20;14.05;;;4.07;;
32633;SDS011;19043;51.012;5.648;2022-09-09T04:04:46;17.17;;;5.07;;
32633;SDS011;19043;51.012;5.648;2022-09-09T04:07:12;11.20;;;5.10;;
32633;SDS011;19043;51.012;5.648;2022-09-09T04:09:37;10.25;;;3.90;;
32633;SDS011;19043;51.012;5.648;2022-09-09T04:12:03;14.40;;;4.35;;
32633;SDS011;19043;51.012;5.648;2022-09-09T04:14:28;13.65;;;4.68;;
32633;SDS011;19043;51.012;5.648;2022-09-09T04:16:54;8.77;;;4.28;;
32633;SDS011;19043;51.012;5.648;2022-09-09T04:19:21;11.35;;;4.45;;
32633;SDS011;19043;51.012;5.648;2022-09-09T04:21:46;14.38;;;5.50;;
32633;SDS011;19043;51.012;5.648;2022-09-09T04:24:13;14.80;;;4.93;;
32633;SDS011;19043;51.012;5.648;2022-09-09T04:26:41;9.13;;;4.60;;
32633;SDS011;19043;51.012;5.648;2022-09-09T04:29:07;12.38;;;5.28;;
32633;SDS011;19043;51.012;5.648;2022-09-09T04:31:33;10.60;;;4.47;;
32633;SDS011;19043;51.012;5.648;2022-09-09T04:33:58;12.15;;;4.00;;
32633;SDS011;19043;51.012;5.648;2022-09-09T04:36:27;8.75;;;3.97;;
32633;SDS011;19043;51.012;5.648;2022-09-09T04:38:52;8.02;;;3.88;;
32633;SDS011;19043;51.012;5.648;2022-09-09T04:41:18;12.25;;;5.05;;
32633;SDS011;19043;51.012;5.648;2022-09-09T04:43:43;11.68;;;4.80;;
32633;SDS011;19043;51.012;5.648;2022-09-09T04:46:08;8.35;;;4.10;;
32633;SDS011;19043;51.012;5.648;2022-09-09T04:48:34;13.77;;;4.32;;
32633;SDS011;19043;51.012;5.648;2022-09-09T04:51:01;9.93;;;4.15;;
32633;SDS011;19043;51.012;5.648;2022-09-09T04:53:29;9.02;;;3.40;;
32633;SDS011;19043;51.012;5.648;2022-09-09T04:56:05;8.82;;;4.45;;
32633;SDS011;19043;51.012;5.648;2022-09-09T04:58:38;7.40;;;4.18;;
32633;SDS011;19043;51.012;5.648;2022-09-09T05:01:05;7.38;;;4.00;;
32633;SDS011;19043;51.012;5.648;2022-09-09T05:03:31;9.70;;;3.47;;
32633;SDS011;19043;51.012;5.648;2022-09-09T05:06:04;11.23;;;4.43;;
32633;SDS011;19043;51.012;5.648;2022-09-09T05:08:29;13.65;;;4.65;;
32633;SDS011;19043;51.012;5.648;2022-09-09T05:10:55;10.23;;;4.45;;
32633;SDS011;19043;51.012;5.648;2022-09-09T05:13:20;18.73;;;4.57;;
32633;SDS011;19043;51.012;5.648;2022-09-09T05:15:51;12.02;;;4.97;;
32633;SDS011;19043;51.012;5.648;2022-09-09T05:18:19;9.65;;;4.95;;
32633;SDS011;19043;51.012;5.648;2022-09-09T05:20:45;13.57;;;4.68;;
32633;SDS011;19043;51.012;5.648;2022-09-09T05:23:10;7.70;;;3.58;;
32633;SDS011;19043;51.012;5.648;2022-09-09T05:25:38;12.60;;;4.80;;
32633;SDS011;19043;51.012;5.648;2022-09-09T05:28:05;13.65;;;4.88;;
32633;SDS011;19043;51.012;5.648;2022-09-09T05:30:32;11.00;;;4.38;;
32633;SDS011;19043;51.012;5.648;2022-09-09T05:32:57;8.43;;;4.40;;
32633;SDS011;19043;51.012;5.648;2022-09-09T05:35:23;13.27;;;4.95;;
32633;SDS011;19043;51.012;5.648;2022-09-09T05:37:48;13.55;;;4.20;;
32633;SDS011;19043;51.012;5.648;2022-09-09T05:40:14;11.85;;;4.75;;
32633;SDS011;19043;51.012;5.648;2022-09-09T05:42:40;10.73;;;4.47;;
32633;SDS011;19043;51.012;5.648;2022-09-09T05:45:06;13.55;;;5.15;;
32633;SDS011;19043;51.012;5.648;2022-09-09T05:47:32;15.20;;;4.78;;
32633;SDS011;19043;51.012;5.648;2022-09-09T05:49:58;15.82;;;5.65;;
32633;SDS011;19043;51.012;5.648;2022-09-09T05:52:23;11.25;;;5.25;;
32633;SDS011;19043;51.012;5.648;2022-09-09T05:54:51;12.32;;;4.53;;
32633;SDS011;19043;51.012;5.648;2022-09-09T05:57:16;19.05;;;5.78;;
32633;SDS011;19043;51.012;5.648;2022-09-09T05:59:42;15.48;;;5.25;;
32633;SDS011;19043;51.012;5.648;2022-09-09T06:02:08;14.95;;;4.85;;
32633;SDS011;19043;51.012;5.648;2022-09-09T06:04:34;14.77;;;5.43;;
32633;SDS011;19043;51.012;5.648;2022-09-09T06:06:59;16.38;;;4.78;;
32633;SDS011;19043;51.012;5.648;2022-09-09T06:09:25;14.93;;;5.95;;
32633;SDS011;19043;51.012;5.648;2022-09-09T06:11:50;12.68;;;5.30;;
32633;SDS011;19043;51.012;5.648;2022-09-09T06:14:16;12.07;;;4.70;;
32633;SDS011;19043;51.012;5.648;2022-09-09T06:16:42;12.00;;;4.85;;
32633;SDS011;19043;51.012;5.648;2022-09-09T06:19:09;11.73;;;4.60;;
32633;SDS011;19043;51.012;5.648;2022-09-09T06:21:35;14.00;;;4.97;;
32633;SDS011;19043;51.012;5.648;2022-09-09T06:24:02;14.55;;;4.57;;
32633;SDS011;19043;51.012;5.648;2022-09-09T06:26:30;14.05;;;4.43;;
32633;SDS011;19043;51.012;5.648;2022-09-09T06:28:59;11.63;;;5.28;;
32633;SDS011;19043;51.012;5.648;2022-09-09T06:31:26;15.63;;;5.30;;
32633;SDS011;19043;51.012;5.648;2022-09-09T06:33:55;12.27;;;5.10;;
32633;SDS011;19043;51.012;5.648;2022-09-09T06:36:25;11.93;;;5.32;;
32633;SDS011;19043;51.012;5.648;2022-09-09T06:38:51;17.10;;;4.78;;
32633;SDS011;19043;51.012;5.648;2022-09-09T06:41:17;15.05;;;4.35;;
32633;SDS011;19043;51.012;5.648;2022-09-09T06:43:44;15.88;;;5.07;;
32633;SDS011;19043;51.012;5.648;2022-09-09T06:46:20;9.23;;;4.60;;
32633;SDS011;19043;51.012;5.648;2022-09-09T06:48:47;11.52;;;5.18;;
32633;SDS011;19043;51.012;5.648;2022-09-09T06:51:14;11.68;;;4.88;;
32633;SDS011;19043;51.012;5.648;2022-09-09T06:53:41;9.40;;;4.60;;
32633;SDS011;19043;51.012;5.648;2022-09-09T06:58:36;11.93;;;4.57;;
32633;SDS011;19043;51.012;5.648;2022-09-09T07:01:22;12.20;;;4.60;;
32633;SDS011;19043;51.012;5.648;2022-09-09T07:03:52;9.98;;;4.43;;
32633;SDS011;19043;51.012;5.648;2022-09-09T07:06:26;11.77;;;5.13;;
32633;SDS011;19043;51.012;5.648;2022-09-09T07:08:53;8.70;;;4.07;;
32633;SDS011;19043;51.012;5.648;2022-09-09T07:11:30;13.95;;;4.13;;
32633;SDS011;19043;51.012;5.648;2022-09-09T07:13:57;10.05;;;4.28;;
32633;SDS011;19043;51.012;5.648;2022-09-09T07:16:24;14.57;;;4.20;;
32633;SDS011;19043;51.012;5.648;2022-09-09T07:18:50;10.05;;;4.22;;
32633;SDS011;19043;51.012;5.648;2022-09-09T07:21:16;16.38;;;4.80;;
32633;SDS011;19043;51.012;5.648;2022-09-09T07:23:42;11.15;;;4.30;;
32633;SDS011;19043;51.012;5.648;2022-09-09T07:26:12;10.07;;;4.07;;
32633;SDS011;19043;51.012;5.648;2022-09-09T07:28:39;6.45;;;3.75;;
32633;SDS011;19043;51.012;5.648;2022-09-09T07:31:04;9.77;;;4.00;;
32633;SDS011;19043;51.012;5.648;2022-09-09T07:33:31;11.23;;;3.55;;
32633;SDS011;19043;51.012;5.648;2022-09-09T07:36:08;12.00;;;3.13;;
32633;SDS011;19043;51.012;5.648;2022-09-09T07:39:00;9.20;;;3.78;;
32633;SDS011;19043;51.012;5.648;2022-09-09T07:43:53;11.45;;;3.65;;
32633;SDS011;19043;51.012;5.648;2022-09-09T07:46:19;10.90;;;3.25;;
32633;SDS011;19043;51.012;5.648;2022-09-09T07:48:47;9.05;;;3.13;;
32633;SDS011;19043;51.012;5.648;2022-09-09T07:51:17;7.07;;;3.10;;
32633;SDS011;19043;51.012;5.648;2022-09-09T07:53:45;8.32;;;3.38;;
32633;SDS011;19043;51.012;5.648;2022-09-09T07:56:12;8.35;;;3.13;;
32633;SDS011;19043;51.012;5.648;2022-09-09T07:58:40;7.93;;;3.38;;
32633;SDS011;19043;51.012;5.648;2022-09-09T08:01:28;8.05;;;3.53;;
32633;SDS011;19043;51.012;5.648;2022-09-09T08:04:04;8.57;;;2.97;;
32633;SDS011;19043;51.012;5.648;2022-09-09T08:06:33;15.63;;;3.72;;
32633;SDS011;19043;51.012;5.648;2022-09-09T08:09:00;9.35;;;3.30;;
32633;SDS011;19043;51.012;5.648;2022-09-09T08:11:26;7.25;;;2.65;;
32633;SDS011;19043;51.012;5.648;2022-09-09T08:13:53;8.18;;;3.17;;
32633;SDS011;19043;51.012;5.648;2022-09-09T08:16:20;8.88;;;2.95;;
32633;SDS011;19043;51.012;5.648;2022-09-09T08:18:50;8.38;;;2.95;;
32633;SDS011;19043;51.012;5.648;2022-09-09T08:21:18;7.00;;;2.83;;
32633;SDS011;19043;51.012;5.648;2022-09-09T08:23:46;7.97;;;2.55;;
32633;SDS011;19043;51.012;5.648;2022-09-09T08:28:39;10.95;;;3.00;;
32633;SDS011;19043;51.012;5.648;2022-09-09T08:31:09;7.47;;;2.60;;
32633;SDS011;19043;51.012;5.648;2022-09-09T08:33:34;11.82;;;2.53;;
32633;SDS011;19043;51.012;5.648;2022-09-09T08:36:02;7.97;;;2.65;;
32633;SDS011;19043;51.012;5.648;2022-09-09T08:38:28;15.32;;;3.47;;
32633;SDS011;19043;51.012;5.648;2022-09-09T08:40:53;5.78;;;2.53;;
32633;SDS011;19043;51.012;5.648;2022-09-09T08:43:27;7.10;;;2.58;;
32633;SDS011;19043;51.012;5.648;2022-09-09T08:45:58;5.93;;;2.63;;
32633;SDS011;19043;51.012;5.648;2022-09-09T08:48:35;6.53;;;2.72;;
32633;SDS011;19043;51.012;5.648;2022-09-09T08:51:08;8.32;;;2.40;;
32633;SDS011;19043;51.012;5.648;2022-09-09T08:53:38;4.97;;;2.15;;
32633;SDS011;19043;51.012;5.648;2022-09-09T08:56:12;7.68;;;2.88;;
32633;SDS011;19043;51.012;5.648;2022-09-09T08:58:47;8.23;;;2.88;;
32633;SDS011;19043;51.012;5.648;2022-09-09T09:12:23;6.95;;;2.53;;
32633;SDS011;19043;51.012;5.648;2022-09-09T09:14:51;5.68;;;2.70;;
32633;SDS011;19043;51.012;5.648;2022-09-09T09:17:17;11.73;;;2.42;;
32633;SDS011;19043;51.012;5.648;2022-09-09T09:19:44;12.90;;;3.28;;
32633;SDS011;19043;51.012;5.648;2022-09-09T09:25:18;7.72;;;2.90;;
32633;SDS011;19043;51.012;5.648;2022-09-09T09:27:52;6.03;;;3.08;;
32633;SDS011;19043;51.012;5.648;2022-09-09T09:30:28;8.18;;;3.03;;
32633;SDS011;19043;51.012;5.648;2022-09-09T09:35:25;7.60;;;2.95;;
32633;SDS011;19043;51.012;5.648;2022-09-09T09:37:51;6.85;;;2.42;;
32633;SDS011;19043;51.012;5.648;2022-09-09T09:40:18;10.02;;;2.63;;
32633;SDS011;19043;51.012;5.648;2022-09-09T09:42:48;7.78;;;2.95;;
32633;SDS011;19043;51.012;5.648;2022-09-09T09:45:27;9.00;;;2.83;;
32633;SDS011;19043;51.012;5.648;2022-09-09T09:48:12;9.02;;;2.67;;
32633;SDS011;19043;51.012;5.648;2022-09-09T09:50:57;5.18;;;2.00;;
32633;SDS011;19043;51.012;5.648;2022-09-09T09:53:26;8.13;;;3.10;;
32633;SDS011;19043;51.012;5.648;2022-09-09T09:55:57;7.07;;;2.42;;
32633;SDS011;19043;51.012;5.648;2022-09-09T09:58:25;8.77;;;2.83;;
32633;SDS011;19043;51.012;5.648;2022-09-09T10:00:52;4.82;;;2.42;;
32633;SDS011;19043;51.012;5.648;2022-09-09T10:03:25;9.30;;;3.55;;
32633;SDS011;19043;51.012;5.648;2022-09-09T10:05:55;8.40;;;2.92;;
32633;SDS011;19043;51.012;5.648;2022-09-09T10:08:21;8.57;;;2.80;;
32633;SDS011;19043;51.012;5.648;2022-09-09T10:11:02;8.63;;;2.60;;
32633;SDS011;19043;51.012;5.648;2022-09-09T10:19:03;12.32;;;3.38;;
32633;SDS011;19043;51.012;5.648;2022-09-09T10:21:44;9.73;;;2.53;;
32633;SDS011;19043;51.012;5.648;2022-09-09T10:30:18;7.50;;;2.83;;
32633;SDS011;19043;51.012;5.648;2022-09-09T10:35:35;11.13;;;2.60;;
32633;SDS011;19043;51.012;5.648;2022-09-09T10:46:03;8.23;;;3.47;;
32633;SDS011;19043;51.012;5.648;2022-09-09T10:54:24;11.13;;;3.78;;
32633;SDS011;19043;51.012;5.648;2022-09-09T10:56:56;6.18;;;3.50;;
32633;SDS011;19043;51.012;5.648;2022-09-09T10:59:25;6.20;;;3.88;;
32633;SDS011;19043;51.012;5.648;2022-09-09T11:07:05;8.98;;;4.65;;
32633;SDS011;19043;51.012;5.648;2022-09-09T11:09:35;13.73;;;5.10;;
32633;SDS011;19043;51.012;5.648;2022-09-09T11:12:04;11.40;;;4.78;;
32633;SDS011;19043;51.012;5.648;2022-09-09T11:17:00;7.78;;;4.10;;
32633;SDS011;19043;51.012;5.648;2022-09-09T11:22:00;10.85;;;3.63;;
32633;SDS011;19043;51.012;5.648;2022-09-09T11:24:30;10.23;;;3.92;;
32633;SDS011;19043;51.012;5.648;2022-09-09T11:27:00;7.55;;;4.45;;
32633;SDS011;19043;51.012;5.648;2022-09-09T11:32:27;6.95;;;3.60;;
32633;SDS011;19043;51.012;5.648;2022-09-09T11:35:02;8.25;;;4.07;;
32633;SDS011;19043;51.012;5.648;2022-09-09T11:42:32;10.18;;;4.28;;
32633;SDS011;19043;51.012;5.648;2022-09-09T11:44:58;12.18;;;4.88;;
32633;SDS011;19043;51.012;5.648;2022-09-09T11:47:34;10.30;;;3.30;;
32633;SDS011;19043;51.012;5.648;2022-09-09T11:55:11;16.15;;;3.13;;
32633;SDS011;19043;51.012;5.648;2022-09-09T11:57:38;7.35;;;2.65;;
32633;SDS011;19043;51.012;5.648;2022-09-09T12:00:04;6.40;;;3.17;;
32633;SDS011;19043;51.012;5.648;2022-09-09T12:02:30;8.45;;;2.47;;
32633;SDS011;19043;51.012;5.648;2022-09-09T12:13:17;6.03;;;2.70;;
32633;SDS011;19043;51.012;5.648;2022-09-09T12:15:54;7.68;;;2.80;;
32633;SDS011;19043;51.012;5.648;2022-09-09T12:18:22;7.43;;;3.05;;
32633;SDS011;19043;51.012;5.648;2022-09-09T12:24:10;9.30;;;3.10;;
32633;SDS011;19043;51.012;5.648;2022-09-09T12:26:38;5.53;;;2.90;;
32633;SDS011;19043;51.012;5.648;2022-09-09T12:31:49;5.97;;;2.97;;
32633;SDS011;19043;51.012;5.648;2022-09-09T12:34:41;6.70;;;3.33;;
32633;SDS011;19043;51.012;5.648;2022-09-09T12:37:27;6.50;;;2.75;;
32633;SDS011;19043;51.012;5.648;2022-09-09T12:40:24;14.88;;;3.28;;
32633;SDS011;19043;51.012;5.648;2022-09-09T12:42:50;8.68;;;3.35;;
32633;SDS011;19043;51.012;5.648;2022-09-09T12:47:47;9.43;;;2.15;;
32633;SDS011;19043;51.012;5.648;2022-09-09T12:50:16;5.22;;;2.10;;
32633;SDS011;19043;51.012;5.648;2022-09-09T12:52:44;5.93;;;1.98;;
32633;SDS011;19043;51.012;5.648;2022-09-09T12:55:15;7.88;;;1.70;;
32633;SDS011;19043;51.012;5.648;2022-09-09T12:57:42;6.63;;;1.75;;
32633;SDS011;19043;51.012;5.648;2022-09-09T13:00:16;5.20;;;1.40;;
32633;SDS011;19043;51.012;5.648;2022-09-09T13:02:48;7.38;;;2.05;;
32633;SDS011;19043;51.012;5.648;2022-09-09T13:05:17;4.38;;;2.10;;
32633;SDS011;19043;51.012;5.648;2022-09-09T13:07:44;5.63;;;2.20;;
32633;SDS011;19043;51.012;5.648;2022-09-09T13:10:11;5.03;;;2.60;;
32633;SDS011;19043;51.012;5.648;2022-09-09T13:12:37;7.07;;;3.22;;
32633;SDS011;19043;51.012;5.648;2022-09-09T13:15:03;5.25;;;2.78;;
32633;SDS011;19043;51.012;5.648;2022-09-09T13:17:29;8.25;;;2.70;;
32633;SDS011;19043;51.012;5.648;2022-09-09T13:19:54;10.27;;;3.38;;
32633;SDS011;19043;51.012;5.648;2022-09-09T13:24:48;5.38;;;3.10;;
32633;SDS011;19043;51.012;5.648;2022-09-09T13:27:26;5.38;;;2.75;;
32633;SDS011;19043;51.012;5.648;2022-09-09T13:29:54;9.60;;;2.80;;
32633;SDS011;19043;51.012;5.648;2022-09-09T13:32:20;6.72;;;2.90;;
32633;SDS011;19043;51.012;5.648;2022-09-09T13:34:54;8.65;;;2.65;;
32633;SDS011;19043;51.012;5.648;2022-09-09T13:37:28;7.28;;;2.65;;
32633;SDS011;19043;51.012;5.648;2022-09-09T13:39:57;7.03;;;3.05;;
32633;SDS011;19043;51.012;5.648;2022-09-09T13:42:27;6.25;;;2.20;;
32633;SDS011;19043;51.012;5.648;2022-09-09T13:44:53;4.75;;;2.08;;
32633;SDS011;19043;51.012;5.648;2022-09-09T13:47:54;5.43;;;2.58;;
32633;SDS011;19043;51.012;5.648;2022-09-09T13:52:47;11.38;;;2.85;;
32633;SDS011;19043;51.012;5.648;2022-09-09T13:55:14;6.93;;;2.85;;
32633;SDS011;19043;51.012;5.648;2022-09-09T13:57:39;6.65;;;2.80;;
32633;SDS011;19043;51.012;5.648;2022-09-09T14:00:16;5.60;;;2.90;;
32633;SDS011;19043;51.012;5.648;2022-09-09T14:02:41;6.47;;;3.00;;
32633;SDS011;19043;51.012;5.648;2022-09-09T14:05:09;7.22;;;3.80;;
32633;SDS011;19043;51.012;5.648;2022-09-09T14:07:36;7.95;;;3.40;;
32633;SDS011;19043;51.012;5.648;2022-09-09T14:10:02;9.70;;;3.78;;
32633;SDS011;19043;51.012;5.648;2022-09-09T14:12:28;8.57;;;3.35;;
32633;SDS011;19043;51.012;5.648;2022-09-09T14:14:53;10.90;;;3.38;;
32633;SDS011;19043;51.012;5.648;2022-09-09T14:17:19;4.85;;;2.60;;
32633;SDS011;19043;51.012;5.648;2022-09-09T14:19:44;10.07;;;2.92;;
32633;SDS011;19043;51.012;5.648;2022-09-09T14:22:10;7.63;;;3.10;;
32633;SDS011;19043;51.012;5.648;2022-09-09T14:24:37;5.32;;;2.10;;
32633;SDS011;19043;51.012;5.648;2022-09-09T14:27:02;7.53;;;2.55;;
32633;SDS011;19043;51.012;5.648;2022-09-09T14:29:28;4.35;;;2.00;;
32633;SDS011;19043;51.012;5.648;2022-09-09T14:31:53;5.80;;;1.88;;
32633;SDS011;19043;51.012;5.648;2022-09-09T14:34:18;5.63;;;2.00;;
32633;SDS011;19043;51.012;5.648;2022-09-09T14:36:44;4.43;;;2.03;;
32633;SDS011;19043;51.012;5.648;2022-09-09T14:39:10;7.50;;;1.98;;
32633;SDS011;19043;51.012;5.648;2022-09-09T14:41:35;4.28;;;1.95;;
32633;SDS011;19043;51.012;5.648;2022-09-09T14:44:00;5.22;;;1.70;;
32633;SDS011;19043;51.012;5.648;2022-09-09T14:46:26;5.93;;;1.98;;
32633;SDS011;19043;51.012;5.648;2022-09-09T14:48:51;4.90;;;2.08;;
32633;SDS011;19043;51.012;5.648;2022-09-09T14:51:19;5.50;;;2.05;;
32633;SDS011;19043;51.012;5.648;2022-09-09T14:53:47;3.53;;;1.75;;
32633;SDS011;19043;51.012;5.648;2022-09-09T14:56:14;4.10;;;1.70;;
32633;SDS011;19043;51.012;5.648;2022-09-09T14:58:41;5.38;;;2.03;;
32633;SDS011;19043;51.012;5.648;2022-09-09T15:01:09;6.38;;;1.83;;
32633;SDS011;19043;51.012;5.648;2022-09-09T15:03:39;5.03;;;2.22;;
32633;SDS011;19043;51.012;5.648;2022-09-09T15:06:08;4.65;;;2.42;;
32633;SDS011;19043;51.012;5.648;2022-09-09T15:08:35;5.95;;;2.97;;
32633;SDS011;19043;51.012;5.648;2022-09-09T15:11:02;6.32;;;2.47;;
32633;SDS011;19043;51.012;5.648;2022-09-09T15:13:29;6.15;;;2.65;;
32633;SDS011;19043;51.012;5.648;2022-09-09T15:15:54;5.25;;;2.70;;
32633;SDS011;19043;51.012;5.648;2022-09-09T15:18:20;5.82;;;2.42;;
32633;SDS011;19043;51.012;5.648;2022-09-09T15:20:46;7.57;;;2.08;;
32633;SDS011;19043;51.012;5.648;2022-09-09T15:23:12;7.00;;;2.53;;
32633;SDS011;19043;51.012;5.648;2022-09-09T15:25:38;9.57;;;2.10;;
32633;SDS011;19043;51.012;5.648;2022-09-09T15:28:14;5.32;;;1.80;;
32633;SDS011;19043;51.012;5.648;2022-09-09T15:30:40;2.70;;;1.35;;
32633;SDS011;19043;51.012;5.648;2022-09-09T15:33:07;5.60;;;2.33;;
32633;SDS011;19043;51.012;5.648;2022-09-09T15:35:33;3.40;;;1.58;;
32633;SDS011;19043;51.012;5.648;2022-09-09T15:38:01;4.07;;;1.80;;
32633;SDS011;19043;51.012;5.648;2022-09-09T15:40:27;7.00;;;1.55;;
32633;SDS011;19043;51.012;5.648;2022-09-09T15:42:52;5.43;;;1.92;;
32633;SDS011;19043;51.012;5.648;2022-09-09T15:45:18;5.43;;;2.00;;
32633;SDS011;19043;51.012;5.648;2022-09-09T15:47:43;12.82;;;2.40;;
32633;SDS011;19043;51.012;5.648;2022-09-09T15:50:10;5.00;;;1.50;;
32633;SDS011;19043;51.012;5.648;2022-09-09T15:52:35;4.72;;;1.90;;
32633;SDS011;19043;51.012;5.648;2022-09-09T15:55:01;4.07;;;1.77;;
32633;SDS011;19043;51.012;5.648;2022-09-09T15:57:26;6.70;;;2.05;;
32633;SDS011;19043;51.012;5.648;2022-09-09T15:59:51;6.22;;;1.85;;
32633;SDS011;19043;51.012;5.648;2022-09-09T16:02:17;4.55;;;1.95;;
32633;SDS011;19043;51.012;5.648;2022-09-09T16:04:43;6.75;;;1.63;;
32633;SDS011;19043;51.012;5.648;2022-09-09T16:07:08;7.65;;;1.80;;
32633;SDS011;19043;51.012;5.648;2022-09-09T16:09:34;4.93;;;1.30;;
32633;SDS011;19043;51.012;5.648;2022-09-09T16:12:00;6.20;;;2.00;;
32633;SDS011;19043;51.012;5.648;2022-09-09T16:14:27;6.45;;;2.25;;
32633;SDS011;19043;51.012;5.648;2022-09-09T16:16:53;4.82;;;2.10;;
32633;SDS011;19043;51.012;5.648;2022-09-09T16:19:18;5.38;;;2.25;;
32633;SDS011;19043;51.012;5.648;2022-09-09T16:21:45;4.88;;;2.08;;
32633;SDS011;19043;51.012;5.648;2022-09-09T16:24:12;12.07;;;2.22;;
32633;SDS011;19043;51.012;5.648;2022-09-09T16:26:41;4.28;;;2.30;;
32633;SDS011;19043;51.012;5.648;2022-09-09T16:29:09;9.43;;;1.48;;
32633;SDS011;19043;51.012;5.648;2022-09-09T16:31:35;3.88;;;2.03;;
32633;SDS011;19043;51.012;5.648;2022-09-09T16:34:00;5.82;;;2.08;;
32633;SDS011;19043;51.012;5.648;2022-09-09T16:36:28;5.65;;;2.25;;
32633;SDS011;19043;51.012;5.648;2022-09-09T16:38:59;6.03;;;2.45;;
32633;SDS011;19043;51.012;5.648;2022-09-09T16:41:26;3.97;;;1.65;;
32633;SDS011;19043;51.012;5.648;2022-09-09T16:43:53;4.18;;;1.25;;
32633;SDS011;19043;51.012;5.648;2022-09-09T16:46:24;3.17;;;1.45;;
32633;SDS011;19043;51.012;5.648;2022-09-09T16:48:50;5.72;;;1.60;;
32633;SDS011;19043;51.012;5.648;2022-09-09T16:51:17;5.43;;;1.27;;
32633;SDS011;19043;51.012;5.648;2022-09-09T16:53:44;3.63;;;1.23;;
32633;SDS011;19043;51.012;5.648;2022-09-09T16:56:11;5.95;;;1.30;;
32633;SDS011;19043;51.012;5.648;2022-09-09T16:58:38;3.38;;;1.40;;
32633;SDS011;19043;51.012;5.648;2022-09-09T17:01:04;4.30;;;1.45;;
32633;SDS011;19043;51.012;5.648;2022-09-09T17:03:30;3.95;;;1.42;;
32633;SDS011;19043;51.012;5.648;2022-09-09T17:05:59;21.27;;;1.80;;
32633;SDS011;19043;51.012;5.648;2022-09-09T17:08:28;4.57;;;1.67;;
32633;SDS011;19043;51.012;5.648;2022-09-09T17:10:54;4.18;;;1.55;;
32633;SDS011;19043;51.012;5.648;2022-09-09T17:13:20;6.40;;;1.30;;
32633;SDS011;19043;51.012;5.648;2022-09-09T17:15:45;4.75;;;1.63;;
32633;SDS011;19043;51.012;5.648;2022-09-09T17:18:11;4.63;;;1.35;;